sensor_id;sensor_type;location;lat;lon;timestamp;P1;durP1;ratioP1;P2;durP2;ratioP2
79566;SDS011;69030;48.126;7.816;2024-01-16T00:02:12;10.45;;;6.22;;
79566;SDS011;69030;48.126;7.816;2024-01-16T00:04:39;12.75;;;6.85;;
79566;SDS011;69030;48.126;7.816;2024-01-16T00:07:05;11.05;;;5.35;;
79566;SDS011;69030;48.126;7.816;2024-01-16T00:09:34;12.20;;;6.70;;
79566;SDS011;69030;48.126;7.816;2024-01-16T00:12:01;17.42;;;6.72;;
79566;SDS011;69030;48.126;7.816;2024-01-16T00:14:27;11.55;;;6.78;;
79566;SDS011;69030;48.126;7.816;2024-01-16T00:16:53;11.90;;;6.60;;
79566;SDS011;69030;48.126;7.816;2024-01-16T00:19:18;14.05;;;5.97;;
79566;SDS011;69030;48.126;7.816;2024-01-16T00:21:44;10.50;;;5.47;;
79566;SDS011;69030;48.126;7.816;2024-01-16T00:24:13;11.75;;;7.07;;
79566;SDS011;69030;48.126;7.816;2024-01-16T00:26:39;10.88;;;6.97;;
79566;SDS011;69030;48.126;7.816;2024-01-16T00:29:04;15.27;;;6.35;;
79566;SDS011;69030;48.126;7.816;2024-01-16T00:31:30;13.00;;;8.90;;
79566;SDS011;69030;48.126;7.816;2024-01-16T00:33:56;12.80;;;6.68;;
79566;SDS011;69030;48.126;7.816;2024-01-16T00:36:21;13.80;;;6.28;;
79566;SDS011;69030;48.126;7.816;2024-01-16T00:38:47;13.60;;;7.60;;
79566;SDS011;69030;48.126;7.816;2024-01-16T00:41:12;11.00;;;5.15;;
79566;SDS011;69030;48.126;7.816;2024-01-16T00:43:40;11.32;;;5.80;;
79566;SDS011;69030;48.126;7.816;2024-01-16T00:46:06;8.90;;;5.25;;
79566;SDS011;69030;48.126;7.816;2024-01-16T00:48:32;9.88;;;6.85;;
79566;SDS011;69030;48.126;7.816;2024-01-16T00:50:57;14.25;;;6.03;;
79566;SDS011;69030;48.126;7.816;2024-01-16T00:53:23;10.85;;;5.47;;
79566;SDS011;69030;48.126;7.816;2024-01-16T00:55:49;11.32;;;5.95;;
79566;SDS011;69030;48.126;7.816;2024-01-16T00:58:15;11.68;;;6.03;;
79566;SDS011;69030;48.126;7.816;2024-01-16T01:00:41;10.40;;;5.40;;
79566;SDS011;69030;48.126;7.816;2024-01-16T01:03:07;9.68;;;5.63;;
79566;SDS011;69030;48.126;7.816;2024-01-16T01:05:32;9.05;;;4.13;;
79566;SDS011;69030;48.126;7.816;2024-01-16T01:07:58;10.30;;;5.25;;
79566;SDS011;69030;48.126;7.816;2024-01-16T01:10:23;10.98;;;4.97;;
79566;SDS011;69030;48.126;7.816;2024-01-16T01:12:49;12.18;;;5.30;;
79566;SDS011;69030;48.126;7.816;2024-01-16T01:15:16;10.98;;;5.60;;
79566;SDS011;69030;48.126;7.816;2024-01-16T01:17:42;12.80;;;4.68;;
79566;SDS011;69030;48.126;7.816;2024-01-16T01:20:10;7.30;;;5.78;;
79566;SDS011;69030;48.126;7.816;2024-01-16T01:22:37;11.45;;;6.40;;
79566;SDS011;69030;48.126;7.816;2024-01-16T01:25:03;15.38;;;6.95;;
79566;SDS011;69030;48.126;7.816;2024-01-16T01:27:30;10.45;;;6.15;;
79566;SDS011;69030;48.126;7.816;2024-01-16T01:29:55;13.02;;;6.93;;
79566;SDS011;69030;48.126;7.816;2024-01-16T01:32:20;10.80;;;5.53;;
79566;SDS011;69030;48.126;7.816;2024-01-16T01:34:47;14.40;;;5.35;;
79566;SDS011;69030;48.126;7.816;2024-01-16T01:37:12;7.82;;;5.60;;
79566;SDS011;69030;48.126;7.816;2024-01-16T01:39:43;8.95;;;4.95;;
79566;SDS011;69030;48.126;7.816;2024-01-16T01:42:08;11.68;;;5.15;;
79566;SDS011;69030;48.126;7.816;2024-01-16T01:44:34;7.60;;;5.00;;
79566;SDS011;69030;48.126;7.816;2024-01-16T01:46:59;11.32;;;6.07;;
79566;SDS011;69030;48.126;7.816;2024-01-16T01:49:25;11.00;;;3.95;;
79566;SDS011;69030;48.126;7.816;2024-01-16T01:51:50;8.45;;;4.25;;
79566;SDS011;69030;48.126;7.816;2024-01-16T01:54:16;11.60;;;4.93;;
79566;SDS011;69030;48.126;7.816;2024-01-16T01:56:46;8.90;;;4.13;;
79566;SDS011;69030;48.126;7.816;2024-01-16T01:59:13;9.30;;;5.03;;
79566;SDS011;69030;48.126;7.816;2024-01-16T02:01:40;11.93;;;4.85;;
79566;SDS011;69030;48.126;7.816;2024-01-16T02:04:06;9.20;;;4.40;;
79566;SDS011;69030;48.126;7.816;2024-01-16T02:06:32;9.98;;;5.10;;
79566;SDS011;69030;48.126;7.816;2024-01-16T02:08:58;11.95;;;5.30;;
79566;SDS011;69030;48.126;7.816;2024-01-16T02:11:24;7.28;;;3.88;;
79566;SDS011;69030;48.126;7.816;2024-01-16T02:13:50;9.60;;;5.07;;
79566;SDS011;69030;48.126;7.816;2024-01-16T02:16:22;8.88;;;4.22;;
79566;SDS011;69030;48.126;7.816;2024-01-16T02:18:48;7.68;;;4.45;;
79566;SDS011;69030;48.126;7.816;2024-01-16T02:21:18;10.90;;;5.05;;
79566;SDS011;69030;48.126;7.816;2024-01-16T02:23:46;9.02;;;4.57;;
79566;SDS011;69030;48.126;7.816;2024-01-16T02:26:13;9.60;;;4.80;;
79566;SDS011;69030;48.126;7.816;2024-01-16T02:28:40;7.95;;;4.38;;
79566;SDS011;69030;48.126;7.816;2024-01-16T02:31:05;11.18;;;3.83;;
79566;SDS011;69030;48.126;7.816;2024-01-16T02:33:32;7.85;;;4.10;;
79566;SDS011;69030;48.126;7.816;2024-01-16T02:35:58;5.45;;;4.18;;
79566;SDS011;69030;48.126;7.816;2024-01-16T02:38:23;6.45;;;4.95;;
79566;SDS011;69030;48.126;7.816;2024-01-16T02:40:50;7.97;;;3.83;;
79566;SDS011;69030;48.126;7.816;2024-01-16T02:43:15;7.65;;;4.90;;
79566;SDS011;69030;48.126;7.816;2024-01-16T02:45:41;4.97;;;3.42;;
79566;SDS011;69030;48.126;7.816;2024-01-16T02:48:07;10.10;;;4.53;;
79566;SDS011;69030;48.126;7.816;2024-01-16T02:50:32;8.48;;;4.93;;
79566;SDS011;69030;48.126;7.816;2024-01-16T02:52:58;9.98;;;4.90;;
79566;SDS011;69030;48.126;7.816;2024-01-16T02:55:23;7.95;;;4.45;;
79566;SDS011;69030;48.126;7.816;2024-01-16T02:57:49;6.82;;;4.20;;
79566;SDS011;69030;48.126;7.816;2024-01-16T03:00:15;8.02;;;4.95;;
79566;SDS011;69030;48.126;7.816;2024-01-16T03:02:42;6.80;;;4.43;;
79566;SDS011;69030;48.126;7.816;2024-01-16T03:05:09;7.68;;;4.05;;
79566;SDS011;69030;48.126;7.816;2024-01-16T03:07:35;4.80;;;2.78;;
79566;SDS011;69030;48.126;7.816;2024-01-16T03:10:01;4.63;;;3.65;;
79566;SDS011;69030;48.126;7.816;2024-01-16T03:12:26;10.23;;;4.80;;
79566;SDS011;69030;48.126;7.816;2024-01-16T03:14:52;6.68;;;2.92;;
79566;SDS011;69030;48.126;7.816;2024-01-16T03:17:18;8.65;;;3.97;;
79566;SDS011;69030;48.126;7.816;2024-01-16T03:19:44;4.80;;;2.85;;
79566;SDS011;69030;48.126;7.816;2024-01-16T03:22:09;11.02;;;4.40;;
79566;SDS011;69030;48.126;7.816;2024-01-16T03:24:35;6.22;;;3.55;;
79566;SDS011;69030;48.126;7.816;2024-01-16T03:27:00;5.95;;;3.08;;
79566;SDS011;69030;48.126;7.816;2024-01-16T03:29:26;6.03;;;2.50;;
79566;SDS011;69030;48.126;7.816;2024-01-16T03:31:51;5.65;;;3.08;;
79566;SDS011;69030;48.126;7.816;2024-01-16T03:34:18;7.95;;;3.60;;
79566;SDS011;69030;48.126;7.816;2024-01-16T03:36:44;8.38;;;3.20;;
79566;SDS011;69030;48.126;7.816;2024-01-16T03:39:09;7.53;;;3.72;;
79566;SDS011;69030;48.126;7.816;2024-01-16T03:41:35;7.25;;;3.40;;
79566;SDS011;69030;48.126;7.816;2024-01-16T03:44:00;7.18;;;3.92;;
79566;SDS011;69030;48.126;7.816;2024-01-16T03:46:25;8.68;;;3.67;;
79566;SDS011;69030;48.126;7.816;2024-01-16T03:48:51;12.13;;;3.97;;
79566;SDS011;69030;48.126;7.816;2024-01-16T03:51:16;5.50;;;3.53;;
79566;SDS011;69030;48.126;7.816;2024-01-16T03:53:45;13.25;;;4.03;;
79566;SDS011;69030;48.126;7.816;2024-01-16T03:56:10;5.72;;;3.55;;
79566;SDS011;69030;48.126;7.816;2024-01-16T03:58:37;4.20;;;2.47;;
79566;SDS011;69030;48.126;7.816;2024-01-16T04:01:02;9.38;;;2.78;;
79566;SDS011;69030;48.126;7.816;2024-01-16T04:03:28;4.40;;;3.00;;
79566;SDS011;69030;48.126;7.816;2024-01-16T04:05:53;5.57;;;3.10;;
79566;SDS011;69030;48.126;7.816;2024-01-16T04:08:19;6.53;;;3.17;;
79566;SDS011;69030;48.126;7.816;2024-01-16T04:10:44;7.07;;;2.85;;
79566;SDS011;69030;48.126;7.816;2024-01-16T04:13:09;5.05;;;3.42;;
79566;SDS011;69030;48.126;7.816;2024-01-16T04:15:37;6.65;;;3.40;;
79566;SDS011;69030;48.126;7.816;2024-01-16T04:20:29;3.97;;;3.60;;
79566;SDS011;69030;48.126;7.816;2024-01-16T04:22:54;5.85;;;3.03;;
79566;SDS011;69030;48.126;7.816;2024-01-16T04:25:20;8.23;;;2.55;;
79566;SDS011;69030;48.126;7.816;2024-01-16T04:27:45;6.00;;;2.92;;
79566;SDS011;69030;48.126;7.816;2024-01-16T04:30:11;4.53;;;2.47;;
79566;SDS011;69030;48.126;7.816;2024-01-16T04:32:37;4.72;;;1.77;;
79566;SDS011;69030;48.126;7.816;2024-01-16T04:35:02;9.90;;;3.90;;
79566;SDS011;69030;48.126;7.816;2024-01-16T04:37:28;5.10;;;2.97;;
79566;SDS011;69030;48.126;7.816;2024-01-16T04:39:54;6.10;;;3.15;;
79566;SDS011;69030;48.126;7.816;2024-01-16T04:42:20;4.05;;;2.75;;
79566;SDS011;69030;48.126;7.816;2024-01-16T04:44:45;8.05;;;5.20;;
79566;SDS011;69030;48.126;7.816;2024-01-16T04:47:10;7.60;;;3.00;;
79566;SDS011;69030;48.126;7.816;2024-01-16T04:49:36;9.32;;;3.90;;
79566;SDS011;69030;48.126;7.816;2024-01-16T04:52:02;9.35;;;3.35;;
79566;SDS011;69030;48.126;7.816;2024-01-16T04:54:28;8.07;;;2.85;;
79566;SDS011;69030;48.126;7.816;2024-01-16T04:56:53;7.20;;;3.08;;
79566;SDS011;69030;48.126;7.816;2024-01-16T04:59:19;10.60;;;3.60;;
79566;SDS011;69030;48.126;7.816;2024-01-16T05:01:45;6.55;;;4.28;;
79566;SDS011;69030;48.126;7.816;2024-01-16T05:04:11;9.45;;;5.00;;
79566;SDS011;69030;48.126;7.816;2024-01-16T05:06:37;6.70;;;3.78;;
79566;SDS011;69030;48.126;7.816;2024-01-16T05:09:02;4.85;;;2.40;;
79566;SDS011;69030;48.126;7.816;2024-01-16T05:11:30;7.07;;;4.40;;
79566;SDS011;69030;48.126;7.816;2024-01-16T05:13:57;3.47;;;2.97;;
79566;SDS011;69030;48.126;7.816;2024-01-16T05:16:24;6.32;;;2.88;;
79566;SDS011;69030;48.126;7.816;2024-01-16T05:18:50;6.05;;;3.28;;
79566;SDS011;69030;48.126;7.816;2024-01-16T05:21:15;7.00;;;4.53;;
79566;SDS011;69030;48.126;7.816;2024-01-16T05:23:41;4.68;;;3.63;;
79566;SDS011;69030;48.126;7.816;2024-01-16T05:26:06;2.65;;;1.88;;
79566;SDS011;69030;48.126;7.816;2024-01-16T05:28:32;6.60;;;4.43;;
79566;SDS011;69030;48.126;7.816;2024-01-16T05:30:57;2.78;;;1.40;;
79566;SDS011;69030;48.126;7.816;2024-01-16T05:33:22;5.05;;;2.95;;
79566;SDS011;69030;48.126;7.816;2024-01-16T05:35:48;3.53;;;3.10;;
79566;SDS011;69030;48.126;7.816;2024-01-16T05:38:13;5.10;;;2.47;;
79566;SDS011;69030;48.126;7.816;2024-01-16T05:40:38;4.13;;;3.30;;
79566;SDS011;69030;48.126;7.816;2024-01-16T05:43:04;3.70;;;2.08;;
79566;SDS011;69030;48.126;7.816;2024-01-16T05:45:30;5.70;;;2.78;;
79566;SDS011;69030;48.126;7.816;2024-01-16T05:47:56;4.70;;;2.22;;
79566;SDS011;69030;48.126;7.816;2024-01-16T05:50:21;6.50;;;2.85;;
79566;SDS011;69030;48.126;7.816;2024-01-16T05:52:47;12.07;;;3.42;;
79566;SDS011;69030;48.126;7.816;2024-01-16T05:55:14;6.80;;;3.33;;
79566;SDS011;69030;48.126;7.816;2024-01-16T05:57:39;4.40;;;2.53;;
79566;SDS011;69030;48.126;7.816;2024-01-16T06:00:05;11.50;;;3.17;;
79566;SDS011;69030;48.126;7.816;2024-01-16T06:02:31;6.75;;;2.72;;
79566;SDS011;69030;48.126;7.816;2024-01-16T06:04:57;5.75;;;3.03;;
79566;SDS011;69030;48.126;7.816;2024-01-16T06:07:22;5.72;;;3.67;;
79566;SDS011;69030;48.126;7.816;2024-01-16T06:09:48;6.05;;;3.63;;
79566;SDS011;69030;48.126;7.816;2024-01-16T06:12:14;4.22;;;2.92;;
79566;SDS011;69030;48.126;7.816;2024-01-16T06:14:39;6.18;;;3.15;;
79566;SDS011;69030;48.126;7.816;2024-01-16T06:17:06;3.55;;;2.25;;
79566;SDS011;69030;48.126;7.816;2024-01-16T06:19:31;5.50;;;2.55;;
79566;SDS011;69030;48.126;7.816;2024-01-16T06:22:00;7.22;;;2.67;;
79566;SDS011;69030;48.126;7.816;2024-01-16T06:24:27;4.60;;;2.83;;
79566;SDS011;69030;48.126;7.816;2024-01-16T06:26:54;5.15;;;3.55;;
79566;SDS011;69030;48.126;7.816;2024-01-16T06:29:19;4.63;;;3.38;;
79566;SDS011;69030;48.126;7.816;2024-01-16T06:31:44;6.55;;;4.57;;
79566;SDS011;69030;48.126;7.816;2024-01-16T06:34:10;8.60;;;5.13;;
79566;SDS011;69030;48.126;7.816;2024-01-16T06:36:36;4.47;;;3.20;;
79566;SDS011;69030;48.126;7.816;2024-01-16T06:39:01;7.30;;;4.28;;
79566;SDS011;69030;48.126;7.816;2024-01-16T06:41:28;7.70;;;4.43;;
79566;SDS011;69030;48.126;7.816;2024-01-16T06:43:53;5.60;;;4.57;;
79566;SDS011;69030;48.126;7.816;2024-01-16T06:46:19;7.35;;;3.95;;
79566;SDS011;69030;48.126;7.816;2024-01-16T06:48:44;5.15;;;2.50;;
79566;SDS011;69030;48.126;7.816;2024-01-16T06:51:10;10.32;;;4.22;;
79566;SDS011;69030;48.126;7.816;2024-01-16T06:56:05;4.05;;;3.17;;
79566;SDS011;69030;48.126;7.816;2024-01-16T06:58:31;6.97;;;4.25;;
79566;SDS011;69030;48.126;7.816;2024-01-16T07:00:57;6.15;;;4.88;;
79566;SDS011;69030;48.126;7.816;2024-01-16T07:03:23;9.68;;;5.15;;
79566;SDS011;69030;48.126;7.816;2024-01-16T07:05:49;7.40;;;4.28;;
79566;SDS011;69030;48.126;7.816;2024-01-16T07:08:14;5.68;;;3.20;;
79566;SDS011;69030;48.126;7.816;2024-01-16T07:10:40;7.43;;;4.50;;
79566;SDS011;69030;48.126;7.816;2024-01-16T07:13:05;6.60;;;3.65;;
79566;SDS011;69030;48.126;7.816;2024-01-16T07:15:35;5.60;;;3.58;;
79566;SDS011;69030;48.126;7.816;2024-01-16T07:18:01;6.82;;;4.22;;
79566;SDS011;69030;48.126;7.816;2024-01-16T07:20:26;9.48;;;3.22;;
79566;SDS011;69030;48.126;7.816;2024-01-16T07:22:52;7.15;;;4.63;;
79566;SDS011;69030;48.126;7.816;2024-01-16T07:25:17;10.55;;;4.05;;
79566;SDS011;69030;48.126;7.816;2024-01-16T07:27:43;10.18;;;4.15;;
79566;SDS011;69030;48.126;7.816;2024-01-16T07:30:10;7.88;;;4.20;;
79566;SDS011;69030;48.126;7.816;2024-01-16T07:32:36;7.68;;;3.70;;
79566;SDS011;69030;48.126;7.816;2024-01-16T07:35:02;8.50;;;4.45;;
79566;SDS011;69030;48.126;7.816;2024-01-16T07:37:28;5.88;;;3.95;;
79566;SDS011;69030;48.126;7.816;2024-01-16T07:39:53;9.23;;;4.57;;
79566;SDS011;69030;48.126;7.816;2024-01-16T07:42:19;7.45;;;5.38;;
79566;SDS011;69030;48.126;7.816;2024-01-16T07:44:44;12.57;;;6.00;;
79566;SDS011;69030;48.126;7.816;2024-01-16T07:47:10;9.23;;;5.57;;
79566;SDS011;69030;48.126;7.816;2024-01-16T07:49:36;18.98;;;6.47;;
79566;SDS011;69030;48.126;7.816;2024-01-16T07:52:01;9.98;;;5.80;;
79566;SDS011;69030;48.126;7.816;2024-01-16T07:54:26;9.88;;;5.22;;
79566;SDS011;69030;48.126;7.816;2024-01-16T07:56:52;20.23;;;6.13;;
79566;SDS011;69030;48.126;7.816;2024-01-16T07:59:17;10.27;;;4.90;;
79566;SDS011;69030;48.126;7.816;2024-01-16T08:01:43;7.35;;;4.13;;
79566;SDS011;69030;48.126;7.816;2024-01-16T08:04:09;7.07;;;4.72;;
79566;SDS011;69030;48.126;7.816;2024-01-16T08:06:34;5.13;;;3.83;;
79566;SDS011;69030;48.126;7.816;2024-01-16T08:09:00;22.70;;;4.50;;
79566;SDS011;69030;48.126;7.816;2024-01-16T08:11:25;9.65;;;4.93;;
79566;SDS011;69030;48.126;7.816;2024-01-16T08:13:50;7.80;;;5.68;;
79566;SDS011;69030;48.126;7.816;2024-01-16T08:16:16;8.20;;;5.22;;
79566;SDS011;69030;48.126;7.816;2024-01-16T08:18:42;6.57;;;4.72;;
79566;SDS011;69030;48.126;7.816;2024-01-16T08:21:07;8.13;;;4.75;;
79566;SDS011;69030;48.126;7.816;2024-01-16T08:23:33;11.25;;;4.60;;
79566;SDS011;69030;48.126;7.816;2024-01-16T08:25:59;10.60;;;6.32;;
79566;SDS011;69030;48.126;7.816;2024-01-16T08:28:25;13.68;;;7.20;;
79566;SDS011;69030;48.126;7.816;2024-01-16T08:30:51;11.48;;;6.57;;
79566;SDS011;69030;48.126;7.816;2024-01-16T08:33:17;16.65;;;7.53;;
79566;SDS011;69030;48.126;7.816;2024-01-16T08:35:42;24.10;;;14.38;;
79566;SDS011;69030;48.126;7.816;2024-01-16T08:38:08;10.63;;;3.97;;
79566;SDS011;69030;48.126;7.816;2024-01-16T08:40:34;10.77;;;4.32;;
79566;SDS011;69030;48.126;7.816;2024-01-16T08:42:59;8.90;;;5.03;;
79566;SDS011;69030;48.126;7.816;2024-01-16T08:45:24;6.65;;;4.45;;
79566;SDS011;69030;48.126;7.816;2024-01-16T08:47:51;6.10;;;3.95;;
79566;SDS011;69030;48.126;7.816;2024-01-16T08:50:16;6.88;;;4.28;;
79566;SDS011;69030;48.126;7.816;2024-01-16T08:52:42;6.53;;;3.55;;
79566;SDS011;69030;48.126;7.816;2024-01-16T08:55:07;6.47;;;3.67;;
79566;SDS011;69030;48.126;7.816;2024-01-16T08:57:36;4.00;;;2.72;;
79566;SDS011;69030;48.126;7.816;2024-01-16T09:00:03;8.80;;;3.28;;
79566;SDS011;69030;48.126;7.816;2024-01-16T09:02:33;10.27;;;4.20;;
79566;SDS011;69030;48.126;7.816;2024-01-16T09:04:59;9.75;;;5.72;;
79566;SDS011;69030;48.126;7.816;2024-01-16T09:07:25;12.30;;;3.90;;
79566;SDS011;69030;48.126;7.816;2024-01-16T09:09:51;7.00;;;3.55;;
79566;SDS011;69030;48.126;7.816;2024-01-16T09:12:17;15.27;;;5.10;;
79566;SDS011;69030;48.126;7.816;2024-01-16T09:14:43;5.47;;;2.67;;
79566;SDS011;69030;48.126;7.816;2024-01-16T09:17:08;6.22;;;4.32;;
79566;SDS011;69030;48.126;7.816;2024-01-16T09:19:34;7.80;;;6.10;;
79566;SDS011;69030;48.126;7.816;2024-01-16T09:21:59;8.20;;;3.88;;
79566;SDS011;69030;48.126;7.816;2024-01-16T09:24:25;7.80;;;4.20;;
79566;SDS011;69030;48.126;7.816;2024-01-16T09:26:50;8.00;;;4.03;;
79566;SDS011;69030;48.126;7.816;2024-01-16T09:29:16;6.55;;;3.65;;
79566;SDS011;69030;48.126;7.816;2024-01-16T09:31:41;6.00;;;3.38;;
79566;SDS011;69030;48.126;7.816;2024-01-16T09:34:07;4.78;;;3.05;;
79566;SDS011;69030;48.126;7.816;2024-01-16T09:36:38;5.70;;;3.13;;
79566;SDS011;69030;48.126;7.816;2024-01-16T09:39:04;8.20;;;4.20;;
79566;SDS011;69030;48.126;7.816;2024-01-16T09:41:35;12.10;;;4.13;;
79566;SDS011;69030;48.126;7.816;2024-01-16T09:44:01;7.78;;;4.75;;
79566;SDS011;69030;48.126;7.816;2024-01-16T09:46:27;9.52;;;3.33;;
79566;SDS011;69030;48.126;7.816;2024-01-16T09:48:54;4.40;;;3.38;;
79566;SDS011;69030;48.126;7.816;2024-01-16T09:51:21;9.55;;;4.03;;
79566;SDS011;69030;48.126;7.816;2024-01-16T09:53:46;4.20;;;3.80;;
79566;SDS011;69030;48.126;7.816;2024-01-16T09:56:15;4.30;;;3.42;;
79566;SDS011;69030;48.126;7.816;2024-01-16T09:58:42;7.43;;;3.58;;
79566;SDS011;69030;48.126;7.816;2024-01-16T10:01:11;5.85;;;3.97;;
79566;SDS011;69030;48.126;7.816;2024-01-16T10:03:38;4.22;;;2.67;;
79566;SDS011;69030;48.126;7.816;2024-01-16T10:06:04;9.60;;;3.22;;
79566;SDS011;69030;48.126;7.816;2024-01-16T10:08:31;6.70;;;3.78;;
79566;SDS011;69030;48.126;7.816;2024-01-16T10:10:57;3.80;;;2.55;;
79566;SDS011;69030;48.126;7.816;2024-01-16T10:13:25;10.20;;;4.45;;
79566;SDS011;69030;48.126;7.816;2024-01-16T10:15:51;4.38;;;3.97;;
79566;SDS011;69030;48.126;7.816;2024-01-16T10:18:22;7.47;;;3.22;;
79566;SDS011;69030;48.126;7.816;2024-01-16T10:20:52;7.00;;;3.05;;
79566;SDS011;69030;48.126;7.816;2024-01-16T10:23:31;3.35;;;2.17;;
79566;SDS011;69030;48.126;7.816;2024-01-16T10:26:06;5.63;;;3.63;;
79566;SDS011;69030;48.126;7.816;2024-01-16T10:28:37;5.35;;;3.67;;
79566;SDS011;69030;48.126;7.816;2024-01-16T10:31:05;7.18;;;2.97;;
79566;SDS011;69030;48.126;7.816;2024-01-16T10:33:34;7.35;;;3.97;;
79566;SDS011;69030;48.126;7.816;2024-01-16T10:36:13;6.50;;;4.57;;
79566;SDS011;69030;48.126;7.816;2024-01-16T10:38:42;9.73;;;4.35;;
79566;SDS011;69030;48.126;7.816;2024-01-16T10:43:34;9.00;;;4.03;;
79566;SDS011;69030;48.126;7.816;2024-01-16T10:46:17;5.80;;;3.00;;
79566;SDS011;69030;48.126;7.816;2024-01-16T10:48:44;5.75;;;3.47;;
79566;SDS011;69030;48.126;7.816;2024-01-16T10:51:30;4.38;;;3.10;;
79566;SDS011;69030;48.126;7.816;2024-01-16T10:54:00;5.38;;;2.45;;
79566;SDS011;69030;48.126;7.816;2024-01-16T10:56:27;4.40;;;2.30;;
79566;SDS011;69030;48.126;7.816;2024-01-16T11:01:39;4.70;;;3.88;;
79566;SDS011;69030;48.126;7.816;2024-01-16T11:04:08;5.57;;;3.35;;
79566;SDS011;69030;48.126;7.816;2024-01-16T11:06:34;8.13;;;3.38;;
79566;SDS011;69030;48.126;7.816;2024-01-16T11:09:00;6.85;;;3.47;;
79566;SDS011;69030;48.126;7.816;2024-01-16T11:11:32;4.35;;;3.13;;
79566;SDS011;69030;48.126;7.816;2024-01-16T11:13:59;6.85;;;3.65;;
79566;SDS011;69030;48.126;7.816;2024-01-16T11:16:25;4.50;;;2.15;;
79566;SDS011;69030;48.126;7.816;2024-01-16T11:18:51;6.78;;;3.85;;
79566;SDS011;69030;48.126;7.816;2024-01-16T11:21:16;7.03;;;2.75;;
79566;SDS011;69030;48.126;7.816;2024-01-16T11:23:42;4.22;;;3.28;;
79566;SDS011;69030;48.126;7.816;2024-01-16T11:26:29;4.82;;;2.67;;
79566;SDS011;69030;48.126;7.816;2024-01-16T11:28:59;6.22;;;3.78;;
79566;SDS011;69030;48.126;7.816;2024-01-16T11:33:57;4.47;;;2.90;;
79566;SDS011;69030;48.126;7.816;2024-01-16T11:39:23;5.13;;;3.42;;
79566;SDS011;69030;48.126;7.816;2024-01-16T11:47:18;7.20;;;3.05;;
79566;SDS011;69030;48.126;7.816;2024-01-16T11:49:45;3.47;;;2.80;;
79566;SDS011;69030;48.126;7.816;2024-01-16T11:52:12;6.55;;;2.85;;
79566;SDS011;69030;48.126;7.816;2024-01-16T11:54:39;5.80;;;2.10;;
79566;SDS011;69030;48.126;7.816;2024-01-16T12:00:00;4.88;;;2.03;;
79566;SDS011;69030;48.126;7.816;2024-01-16T12:05:02;6.05;;;2.35;;
79566;SDS011;69030;48.126;7.816;2024-01-16T12:07:41;4.97;;;3.92;;
79566;SDS011;69030;48.126;7.816;2024-01-16T12:10:10;5.20;;;2.20;;
79566;SDS011;69030;48.126;7.816;2024-01-16T12:12:36;5.15;;;1.95;;
79566;SDS011;69030;48.126;7.816;2024-01-16T12:15:01;5.82;;;2.10;;
79566;SDS011;69030;48.126;7.816;2024-01-16T12:17:29;4.70;;;2.63;;
79566;SDS011;69030;48.126;7.816;2024-01-16T12:19:54;4.78;;;2.33;;
79566;SDS011;69030;48.126;7.816;2024-01-16T12:22:20;3.65;;;2.30;;
79566;SDS011;69030;48.126;7.816;2024-01-16T12:24:47;5.47;;;1.90;;
79566;SDS011;69030;48.126;7.816;2024-01-16T12:27:13;3.38;;;1.92;;
79566;SDS011;69030;48.126;7.816;2024-01-16T12:29:39;8.73;;;2.42;;
79566;SDS011;69030;48.126;7.816;2024-01-16T12:34:35;4.00;;;2.28;;
79566;SDS011;69030;48.126;7.816;2024-01-16T12:37:11;4.93;;;2.47;;
79566;SDS011;69030;48.126;7.816;2024-01-16T12:39:37;5.60;;;2.58;;
79566;SDS011;69030;48.126;7.816;2024-01-16T12:42:03;6.80;;;2.25;;
79566;SDS011;69030;48.126;7.816;2024-01-16T12:44:29;5.60;;;2.30;;
79566;SDS011;69030;48.126;7.816;2024-01-16T12:46:55;3.42;;;1.85;;
79566;SDS011;69030;48.126;7.816;2024-01-16T12:49:22;5.60;;;2.42;;
79566;SDS011;69030;48.126;7.816;2024-01-16T12:51:48;6.90;;;1.92;;
79566;SDS011;69030;48.126;7.816;2024-01-16T12:54:14;4.30;;;1.77;;
79566;SDS011;69030;48.126;7.816;2024-01-16T12:56:42;6.13;;;2.65;;
79566;SDS011;69030;48.126;7.816;2024-01-16T12:59:11;3.75;;;2.10;;
79566;SDS011;69030;48.126;7.816;2024-01-16T13:01:41;3.58;;;1.83;;
79566;SDS011;69030;48.126;7.816;2024-01-16T13:04:07;6.05;;;2.35;;
79566;SDS011;69030;48.126;7.816;2024-01-16T13:06:33;4.38;;;1.90;;
79566;SDS011;69030;48.126;7.816;2024-01-16T13:09:05;5.90;;;1.92;;
79566;SDS011;69030;48.126;7.816;2024-01-16T13:11:48;5.50;;;2.75;;
79566;SDS011;69030;48.126;7.816;2024-01-16T13:16:40;8.65;;;2.35;;
79566;SDS011;69030;48.126;7.816;2024-01-16T13:19:06;5.72;;;2.72;;
79566;SDS011;69030;48.126;7.816;2024-01-16T13:21:35;8.15;;;2.80;;
79566;SDS011;69030;48.126;7.816;2024-01-16T13:24:03;5.45;;;3.03;;
79566;SDS011;69030;48.126;7.816;2024-01-16T13:26:29;6.72;;;3.70;;
79566;SDS011;69030;48.126;7.816;2024-01-16T13:28:54;10.20;;;4.82;;
79566;SDS011;69030;48.126;7.816;2024-01-16T13:31:20;7.20;;;3.20;;
79566;SDS011;69030;48.126;7.816;2024-01-16T13:33:45;12.07;;;5.00;;
79566;SDS011;69030;48.126;7.816;2024-01-16T13:36:12;4.68;;;2.95;;
79566;SDS011;69030;48.126;7.816;2024-01-16T13:38:37;7.70;;;6.13;;
79566;SDS011;69030;48.126;7.816;2024-01-16T13:41:03;11.63;;;4.10;;
79566;SDS011;69030;48.126;7.816;2024-01-16T13:43:28;11.50;;;4.45;;
79566;SDS011;69030;48.126;7.816;2024-01-16T13:45:54;3.65;;;2.33;;
79566;SDS011;69030;48.126;7.816;2024-01-16T13:48:20;6.93;;;4.00;;
79566;SDS011;69030;48.126;7.816;2024-01-16T13:50:46;6.70;;;3.13;;
79566;SDS011;69030;48.126;7.816;2024-01-16T13:53:14;6.80;;;2.17;;
79566;SDS011;69030;48.126;7.816;2024-01-16T13:55:40;7.78;;;2.92;;
79566;SDS011;69030;48.126;7.816;2024-01-16T13:58:09;4.20;;;2.60;;
79566;SDS011;69030;48.126;7.816;2024-01-16T14:00:35;4.07;;;2.13;;
79566;SDS011;69030;48.126;7.816;2024-01-16T14:03:01;6.18;;;2.90;;
79566;SDS011;69030;48.126;7.816;2024-01-16T14:05:28;5.97;;;1.98;;
79566;SDS011;69030;48.126;7.816;2024-01-16T14:07:53;9.57;;;4.80;;
79566;SDS011;69030;48.126;7.816;2024-01-16T14:10:20;12.32;;;4.40;;
79566;SDS011;69030;48.126;7.816;2024-01-16T14:12:48;7.68;;;2.65;;
79566;SDS011;69030;48.126;7.816;2024-01-16T14:17:44;6.45;;;2.40;;
79566;SDS011;69030;48.126;7.816;2024-01-16T14:20:11;6.03;;;2.83;;
79566;SDS011;69030;48.126;7.816;2024-01-16T14:22:38;9.05;;;3.42;;
79566;SDS011;69030;48.126;7.816;2024-01-16T14:25:06;7.70;;;3.08;;
79566;SDS011;69030;48.126;7.816;2024-01-16T14:27:38;5.38;;;3.05;;
79566;SDS011;69030;48.126;7.816;2024-01-16T14:30:11;7.13;;;3.35;;
79566;SDS011;69030;48.126;7.816;2024-01-16T14:32:42;5.75;;;2.63;;
79566;SDS011;69030;48.126;7.816;2024-01-16T14:35:09;7.43;;;2.47;;
79566;SDS011;69030;48.126;7.816;2024-01-16T14:37:39;4.85;;;3.22;;
79566;SDS011;69030;48.126;7.816;2024-01-16T14:40:06;11.30;;;3.53;;
79566;SDS011;69030;48.126;7.816;2024-01-16T14:42:33;6.35;;;2.67;;
79566;SDS011;69030;48.126;7.816;2024-01-16T14:45:04;5.55;;;2.50;;
79566;SDS011;69030;48.126;7.816;2024-01-16T14:47:30;4.93;;;2.58;;
79566;SDS011;69030;48.126;7.816;2024-01-16T14:49:56;8.10;;;2.53;;
79566;SDS011;69030;48.126;7.816;2024-01-16T14:52:22;6.80;;;2.60;;
79566;SDS011;69030;48.126;7.816;2024-01-16T14:54:48;8.65;;;2.60;;
79566;SDS011;69030;48.126;7.816;2024-01-16T14:57:15;9.50;;;2.97;;
79566;SDS011;69030;48.126;7.816;2024-01-16T14:59:41;4.63;;;3.08;;
79566;SDS011;69030;48.126;7.816;2024-01-16T15:02:06;4.43;;;3.08;;
79566;SDS011;69030;48.126;7.816;2024-01-16T15:04:38;5.55;;;2.72;;
79566;SDS011;69030;48.126;7.816;2024-01-16T15:07:05;4.60;;;2.28;;
79566;SDS011;69030;48.126;7.816;2024-01-16T15:09:31;5.35;;;2.92;;
79566;SDS011;69030;48.126;7.816;2024-01-16T15:14:24;7.25;;;2.78;;
79566;SDS011;69030;48.126;7.816;2024-01-16T15:16:50;8.45;;;2.88;;
79566;SDS011;69030;48.126;7.816;2024-01-16T15:19:15;6.43;;;3.05;;